sensor_id;sensor_type;location;lat;lon;timestamp;temperature;humidity
19385;DHT22;9828;54.122;17.974;2023-05-07T00:02:38;6.40;99.90
19385;DHT22;9828;54.122;17.974;2023-05-07T00:07:59;6.40;1.00
19385;DHT22;9828;54.122;17.974;2023-05-07T00:13:21;6.40;99.90
19385;DHT22;9828;54.122;17.974;2023-05-07T00:18:42;6.30;99.90
19385;DHT22;9828;54.122;17.974;2023-05-07T00:24:03;6.30;1.00
19385;DHT22;9828;54.122;17.974;2023-05-07T00:29:24;6.30;1.00
19385;DHT22;9828;54.122;17.974;2023-05-07T00:34:45;6.20;99.90
19385;DHT22;9828;54.122;17.974;2023-05-07T00:40:07;6.10;99.90
19385;DHT22;9828;54.122;17.974;2023-05-07T00:45:29;6.10;99.90
19385;DHT22;9828;54.122;17.974;2023-05-07T00:50:51;6.10;99.90
19385;DHT22;9828;54.122;17.974;2023-05-07T00:56:13;6.20;16.40
19385;DHT22;9828;54.122;17.974;2023-05-07T01:01:33;6.10;1.00
19385;DHT22;9828;54.122;17.974;2023-05-07T01:06:55;6.00;1.00
19385;DHT22;9828;54.122;17.974;2023-05-07T01:12:17;5.90;1.00
19385;DHT22;9828;54.122;17.974;2023-05-07T01:17:40;5.90;1.00
19385;DHT22;9828;54.122;17.974;2023-05-07T01:23:07;5.90;99.90
19385;DHT22;9828;54.122;17.974;2023-05-07T01:28:28;5.90;1.00
19385;DHT22;9828;54.122;17.974;2023-05-07T01:34:08;5.80;99.90
19385;DHT22;9828;54.122;17.974;2023-05-07T01:39:32;5.80;1.00
19385;DHT22;9828;54.122;17.974;2023-05-07T01:44:53;5.80;39.00
19385;DHT22;9828;54.122;17.974;2023-05-07T01:50:16;5.80;99.90
19385;DHT22;9828;54.122;17.974;2023-05-07T01:55:39;5.70;1.00
19385;DHT22;9828;54.122;17.974;2023-05-07T02:01:01;5.60;1.00
19385;DHT22;9828;54.122;17.974;2023-05-07T02:06:23;5.70;1.00
19385;DHT22;9828;54.122;17.974;2023-05-07T02:11:49;5.60;1.00
19385;DHT22;9828;54.122;17.974;2023-05-07T02:17:12;5.60;1.00
19385;DHT22;9828;54.122;17.974;2023-05-07T02:22:33;5.60;1.00
19385;DHT22;9828;54.122;17.974;2023-05-07T02:27:54;5.50;1.00
19385;DHT22;9828;54.122;17.974;2023-05-07T02:33:24;5.50;1.00
19385;DHT22;9828;54.122;17.974;2023-05-07T02:38:46;5.50;1.00
19385;DHT22;9828;54.122;17.974;2023-05-07T02:44:07;5.50;1.00
19385;DHT22;9828;54.122;17.974;2023-05-07T02:49:29;5.50;1.00
19385;DHT22;9828;54.122;17.974;2023-05-07T02:54:50;5.50;1.00
19385;DHT22;9828;54.122;17.974;2023-05-07T03:00:17;5.40;1.00
19385;DHT22;9828;54.122;17.974;2023-05-07T03:05:47;5.40;1.00
19385;DHT22;9828;54.122;17.974;2023-05-07T03:11:08;5.50;1.00
19385;DHT22;9828;54.122;17.974;2023-05-07T03:16:29;5.40;1.00
19385;DHT22;9828;54.122;17.974;2023-05-07T03:21:50;5.40;3.60
19385;DHT22;9828;54.122;17.974;2023-05-07T03:27:12;5.40;25.70
19385;DHT22;9828;54.122;17.974;2023-05-07T03:32:34;5.40;48.00
19385;DHT22;9828;54.122;17.974;2023-05-07T03:37:58;5.30;63.70
19385;DHT22;9828;54.122;17.974;2023-05-07T03:43:23;5.40;91.30
19385;DHT22;9828;54.122;17.974;2023-05-07T03:48:52;5.40;94.40
19385;DHT22;9828;54.122;17.974;2023-05-07T03:54:14;5.50;95.00
19385;DHT22;9828;54.122;17.974;2023-05-07T03:59:38;5.60;94.80
19385;DHT22;9828;54.122;17.974;2023-05-07T04:05:01;5.70;94.10
19385;DHT22;9828;54.122;17.974;2023-05-07T04:10:22;5.80;93.60
19385;DHT22;9828;54.122;17.974;2023-05-07T04:15:47;5.80;93.30
19385;DHT22;9828;54.122;17.974;2023-05-07T04:21:19;6.00;92.60
19385;DHT22;9828;54.122;17.974;2023-05-07T04:26:42;6.10;91.50
19385;DHT22;9828;54.122;17.974;2023-05-07T04:32:03;6.20;88.50
19385;DHT22;9828;54.122;17.974;2023-05-07T04:37:25;6.30;86.10
19385;DHT22;9828;54.122;17.974;2023-05-07T04:42:47;6.40;79.10
19385;DHT22;9828;54.122;17.974;2023-05-07T04:48:09;6.50;77.00
19385;DHT22;9828;54.122;17.974;2023-05-07T04:53:33;6.60;73.30
19385;DHT22;9828;54.122;17.974;2023-05-07T04:58:54;6.70;65.60
19385;DHT22;9828;54.122;17.974;2023-05-07T05:04:16;6.90;56.80
19385;DHT22;9828;54.122;17.974;2023-05-07T05:09:37;7.00;54.30
19385;DHT22;9828;54.122;17.974;2023-05-07T05:14:58;7.10;49.40
19385;DHT22;9828;54.122;17.974;2023-05-07T05:20:19;7.30;44.20
19385;DHT22;9828;54.122;17.974;2023-05-07T05:25:41;7.50;40.90
19385;DHT22;9828;54.122;17.974;2023-05-07T05:31:05;7.60;37.80
19385;DHT22;9828;54.122;17.974;2023-05-07T05:36:29;7.80;33.50
19385;DHT22;9828;54.122;17.974;2023-05-07T05:41:52;8.00;1.00
19385;DHT22;9828;54.122;17.974;2023-05-07T05:47:14;8.20;1.00
19385;DHT22;9828;54.122;17.974;2023-05-07T05:52:35;8.60;1.00
19385;DHT22;9828;54.122;17.974;2023-05-07T05:57:56;9.00;1.00
19385;DHT22;9828;54.122;17.974;2023-05-07T06:03:20;9.30;21.80
19385;DHT22;9828;54.122;17.974;2023-05-07T06:08:42;9.50;20.60
19385;DHT22;9828;54.122;17.974;2023-05-07T06:14:05;10.00;19.20
19385;DHT22;9828;54.122;17.974;2023-05-07T06:19:27;10.50;16.20
19385;DHT22;9828;54.122;17.974;2023-05-07T06:24:50;10.90;14.40
19385;DHT22;9828;54.122;17.974;2023-05-07T06:30:12;11.50;12.50
19385;DHT22;9828;54.122;17.974;2023-05-07T06:35:33;12.20;11.70
19385;DHT22;9828;54.122;17.974;2023-05-07T06:40:54;12.90;9.90
19385;DHT22;9828;54.122;17.974;2023-05-07T06:46:18;13.30;9.00
19385;DHT22;9828;54.122;17.974;2023-05-07T06:51:40;14.00;6.80
19385;DHT22;9828;54.122;17.974;2023-05-07T06:57:02;14.80;5.90
19385;DHT22;9828;54.122;17.974;2023-05-07T07:02:24;15.30;4.80
19385;DHT22;9828;54.122;17.974;2023-05-07T07:07:45;15.90;4.00
19385;DHT22;9828;54.122;17.974;2023-05-07T07:13:14;16.30;1.60
19385;DHT22;9828;54.122;17.974;2023-05-07T07:18:35;16.60;1.00
19385;DHT22;9828;54.122;17.974;2023-05-07T07:23:57;16.90;1.00
19385;DHT22;9828;54.122;17.974;2023-05-07T07:29:19;17.00;1.00
19385;DHT22;9828;54.122;17.974;2023-05-07T07:34:41;17.20;1.00
19385;DHT22;9828;54.122;17.974;2023-05-07T07:40:02;17.30;1.00
19385;DHT22;9828;54.122;17.974;2023-05-07T07:45:26;17.60;1.00
19385;DHT22;9828;54.122;17.974;2023-05-07T07:50:51;17.60;1.00
19385;DHT22;9828;54.122;17.974;2023-05-07T07:56:12;17.90;1.00
19385;DHT22;9828;54.122;17.974;2023-05-07T08:01:34;18.10;1.00
19385;DHT22;9828;54.122;17.974;2023-05-07T08:06:55;18.40;1.00
19385;DHT22;9828;54.122;17.974;2023-05-07T08:12:16;18.10;1.00
19385;DHT22;9828;54.122;17.974;2023-05-07T08:17:38;18.60;1.00
19385;DHT22;9828;54.122;17.974;2023-05-07T08:23:00;18.80;1.00
19385;DHT22;9828;54.122;17.974;2023-05-07T08:28:21;19.00;1.00
19385;DHT22;9828;54.122;17.974;2023-05-07T08:33:42;19.50;1.00
19385;DHT22;9828;54.122;17.974;2023-05-07T08:39:04;19.50;1.00
19385;DHT22;9828;54.122;17.974;2023-05-07T08:44:26;19.90;1.00
19385;DHT22;9828;54.122;17.974;2023-05-07T08:49:51;20.10;1.00
19385;DHT22;9828;54.122;17.974;2023-05-07T08:55:13;20.50;1.00
19385;DHT22;9828;54.122;17.974;2023-05-07T09:00:36;20.20;1.00
19385;DHT22;9828;54.122;17.974;2023-05-07T09:05:58;20.00;1.00
19385;DHT22;9828;54.122;17.974;2023-05-07T09:11:21;19.90;1.00
19385;DHT22;9828;54.122;17.974;2023-05-07T09:16:46;20.50;1.00
19385;DHT22;9828;54.122;17.974;2023-05-07T09:22:07;20.30;1.00
19385;DHT22;9828;54.122;17.974;2023-05-07T09:27:41;20.80;1.00
19385;DHT22;9828;54.122;17.974;2023-05-07T09:33:03;21.00;1.00
19385;DHT22;9828;54.122;17.974;2023-05-07T09:38:28;21.10;1.00
19385;DHT22;9828;54.122;17.974;2023-05-07T09:43:55;21.50;1.00
19385;DHT22;9828;54.122;17.974;2023-05-07T09:49:23;21.40;1.00
19385;DHT22;9828;54.122;17.974;2023-05-07T09:54:53;21.50;1.00
19385;DHT22;9828;54.122;17.974;2023-05-07T10:00:20;21.50;1.00
19385;DHT22;9828;54.122;17.974;2023-05-07T10:05:42;21.60;1.00
19385;DHT22;9828;54.122;17.974;2023-05-07T10:11:06;22.00;1.00
19385;DHT22;9828;54.122;17.974;2023-05-07T10:16:33;22.50;1.00
19385;DHT22;9828;54.122;17.974;2023-05-07T10:22:03;22.00;1.00
19385;DHT22;9828;54.122;17.974;2023-05-07T10:27:29;21.50;1.00
19385;DHT22;9828;54.122;17.974;2023-05-07T10:32:54;21.70;1.00
19385;DHT22;9828;54.122;17.974;2023-05-07T10:38:21;21.00;1.00
19385;DHT22;9828;54.122;17.974;2023-05-07T10:43:44;21.20;1.00
19385;DHT22;9828;54.122;17.974;2023-05-07T10:49:17;21.30;1.00
19385;DHT22;9828;54.122;17.974;2023-05-07T11:01:03;21.70;1.00
19385;DHT22;9828;54.122;17.974;2023-05-07T11:06:30;21.80;1.00
19385;DHT22;9828;54.122;17.974;2023-05-07T11:12:00;21.70;1.00
19385;DHT22;9828;54.122;17.974;2023-05-07T11:17:31;22.10;1.00
19385;DHT22;9828;54.122;17.974;2023-05-07T11:23:00;22.00;1.00
19385;DHT22;9828;54.122;17.974;2023-05-07T11:28:31;22.00;1.00
19385;DHT22;9828;54.122;17.974;2023-05-07T11:33:57;22.00;1.00
19385;DHT22;9828;54.122;17.974;2023-05-07T11:39:32;22.20;1.00
19385;DHT22;9828;54.122;17.974;2023-05-07T11:44:57;22.00;1.00
19385;DHT22;9828;54.122;17.974;2023-05-07T11:50:17;22.00;1.00
19385;DHT22;9828;54.122;17.974;2023-05-07T11:55:41;22.10;1.00
19385;DHT22;9828;54.122;17.974;2023-05-07T12:01:02;21.80;1.00
19385;DHT22;9828;54.122;17.974;2023-05-07T12:06:23;21.10;1.00
19385;DHT22;9828;54.122;17.974;2023-05-07T12:11:46;21.20;1.00
19385;DHT22;9828;54.122;17.974;2023-05-07T12:17:08;21.60;1.00
19385;DHT22;9828;54.122;17.974;2023-05-07T12:22:30;21.30;1.00
19385;DHT22;9828;54.122;17.974;2023-05-07T12:27:54;21.40;1.00
19385;DHT22;9828;54.122;17.974;2023-05-07T12:33:23;21.50;1.00
19385;DHT22;9828;54.122;17.974;2023-05-07T12:38:44;21.10;1.00
19385;DHT22;9828;54.122;17.974;2023-05-07T12:44:05;21.10;1.00
19385;DHT22;9828;54.122;17.974;2023-05-07T12:49:27;20.90;1.00
19385;DHT22;9828;54.122;17.974;2023-05-07T12:54:49;20.90;1.00
19385;DHT22;9828;54.122;17.974;2023-05-07T13:00:10;20.80;1.00
19385;DHT22;9828;54.122;17.974;2023-05-07T13:05:31;20.80;1.00
19385;DHT22;9828;54.122;17.974;2023-05-07T13:10:53;20.80;1.00
19385;DHT22;9828;54.122;17.974;2023-05-07T13:16:14;20.90;1.00
19385;DHT22;9828;54.122;17.974;2023-05-07T13:21:35;20.80;1.00
19385;DHT22;9828;54.122;17.974;2023-05-07T13:26:56;20.50;1.00
19385;DHT22;9828;54.122;17.974;2023-05-07T13:32:17;20.20;1.00
19385;DHT22;9828;54.122;17.974;2023-05-07T13:37:39;20.00;1.00
19385;DHT22;9828;54.122;17.974;2023-05-07T13:43:00;19.60;1.00
19385;DHT22;9828;54.122;17.974;2023-05-07T13:48:22;19.50;1.00
19385;DHT22;9828;54.122;17.974;2023-05-07T13:53:44;19.60;1.00
19385;DHT22;9828;54.122;17.974;2023-05-07T13:59:05;19.70;1.00
19385;DHT22;9828;54.122;17.974;2023-05-07T14:04:26;19.30;1.00
19385;DHT22;9828;54.122;17.974;2023-05-07T14:09:47;19.30;1.00
19385;DHT22;9828;54.122;17.974;2023-05-07T14:15:08;19.20;1.00
19385;DHT22;9828;54.122;17.974;2023-05-07T14:20:29;19.00;1.00
19385;DHT22;9828;54.122;17.974;2023-05-07T14:25:54;18.80;1.00
19385;DHT22;9828;54.122;17.974;2023-05-07T14:31:17;18.40;1.00
19385;DHT22;9828;54.122;17.974;2023-05-07T14:36:38;18.20;1.00
19385;DHT22;9828;54.122;17.974;2023-05-07T14:41:59;18.10;1.00
19385;DHT22;9828;54.122;17.974;2023-05-07T14:47:20;18.10;1.00
19385;DHT22;9828;54.122;17.974;2023-05-07T14:52:41;18.00;1.00
19385;DHT22;9828;54.122;17.974;2023-05-07T14:58:02;17.90;1.00
19385;DHT22;9828;54.122;17.974;2023-05-07T15:03:22;17.80;1.00
19385;DHT22;9828;54.122;17.974;2023-05-07T15:08:44;17.80;1.00
19385;DHT22;9828;54.122;17.974;2023-05-07T15:14:05;17.70;1.00
19385;DHT22;9828;54.122;17.974;2023-05-07T15:19:25;17.50;1.00
19385;DHT22;9828;54.122;17.974;2023-05-07T15:24:50;17.30;1.00
19385;DHT22;9828;54.122;17.974;2023-05-07T15:30:11;17.20;1.00
19385;DHT22;9828;54.122;17.974;2023-05-07T15:35:33;17.20;1.00
19385;DHT22;9828;54.122;17.974;2023-05-07T15:40:54;17.00;1.00
19385;DHT22;9828;54.122;17.974;2023-05-07T15:46:20;17.00;1.00
19385;DHT22;9828;54.122;17.974;2023-05-07T15:51:41;16.70;1.00
19385;DHT22;9828;54.122;17.974;2023-05-07T15:57:03;16.60;1.00
19385;DHT22;9828;54.122;17.974;2023-05-07T16:02:24;16.50;1.00
19385;DHT22;9828;54.122;17.974;2023-05-07T16:07:45;16.50;1.00
19385;DHT22;9828;54.122;17.974;2023-05-07T16:13:06;16.20;1.00
19385;DHT22;9828;54.122;17.974;2023-05-07T16:18:27;16.20;1.00
19385;DHT22;9828;54.122;17.974;2023-05-07T16:23:48;15.90;1.00
19385;DHT22;9828;54.122;17.974;2023-05-07T16:29:10;15.90;1.00
19385;DHT22;9828;54.122;17.974;2023-05-07T16:34:31;16.00;1.00
19385;DHT22;9828;54.122;17.974;2023-05-07T16:39:52;15.90;1.00
19385;DHT22;9828;54.122;17.974;2023-05-07T16:45:13;15.70;1.00
19385;DHT22;9828;54.122;17.974;2023-05-07T16:50:34;15.50;1.00
19385;DHT22;9828;54.122;17.974;2023-05-07T16:55:55;15.30;1.00
19385;DHT22;9828;54.122;17.974;2023-05-07T17:01:16;15.20;1.00
19385;DHT22;9828;54.122;17.974;2023-05-07T17:06:39;15.00;1.00
19385;DHT22;9828;54.122;17.974;2023-05-07T17:12:00;14.80;1.00
19385;DHT22;9828;54.122;17.974;2023-05-07T17:17:22;14.70;1.00
19385;DHT22;9828;54.122;17.974;2023-05-07T17:22:43;14.60;1.00
19385;DHT22;9828;54.122;17.974;2023-05-07T17:28:04;14.50;1.00
19385;DHT22;9828;54.122;17.974;2023-05-07T17:33:25;14.40;1.00
19385;DHT22;9828;54.122;17.974;2023-05-07T17:38:47;14.30;1.00
19385;DHT22;9828;54.122;17.974;2023-05-07T17:44:08;14.20;1.00
19385;DHT22;9828;54.122;17.974;2023-05-07T17:49:29;14.10;1.00
19385;DHT22;9828;54.122;17.974;2023-05-07T17:54:50;13.90;1.00
19385;DHT22;9828;54.122;17.974;2023-05-07T18:00:12;13.60;1.00
19385;DHT22;9828;54.122;17.974;2023-05-07T18:05:36;13.50;1.00
19385;DHT22;9828;54.122;17.974;2023-05-07T18:10:57;13.30;1.10
19385;DHT22;9828;54.122;17.974;2023-05-07T18:16:19;13.10;1.20
19385;DHT22;9828;54.122;17.974;2023-05-07T18:21:40;13.00;1.30
19385;DHT22;9828;54.122;17.974;2023-05-07T18:27:01;12.90;1.60
19385;DHT22;9828;54.122;17.974;2023-05-07T18:32:22;12.80;1.90
19385;DHT22;9828;54.122;17.974;2023-05-07T18:37:43;12.70;2.20
19385;DHT22;9828;54.122;17.974;2023-05-07T18:43:04;12.60;2.50
19385;DHT22;9828;54.122;17.974;2023-05-07T18:48:27;12.50;2.90
19385;DHT22;9828;54.122;17.974;2023-05-07T18:53:48;12.30;3.30
19385;DHT22;9828;54.122;17.974;2023-05-07T18:59:09;12.20;3.80
19385;DHT22;9828;54.122;17.974;2023-05-07T19:04:30;12.10;4.10
19385;DHT22;9828;54.122;17.974;2023-05-07T19:09:51;12.00;4.40
19385;DHT22;9828;54.122;17.974;2023-05-07T19:15:21;11.90;4.60
19385;DHT22;9828;54.122;17.974;2023-05-07T19:20:43;11.80;5.00
19385;DHT22;9828;54.122;17.974;2023-05-07T19:26:04;11.70;5.10
19385;DHT22;9828;54.122;17.974;2023-05-07T19:31:26;11.60;5.50
19385;DHT22;9828;54.122;17.974;2023-05-07T19:36:47;11.50;5.30
19385;DHT22;9828;54.122;17.974;2023-05-07T19:42:08;11.40;5.30
19385;DHT22;9828;54.122;17.974;2023-05-07T19:47:29;11.30;5.20
19385;DHT22;9828;54.122;17.974;2023-05-07T19:52:50;11.20;5.40
19385;DHT22;9828;54.122;17.974;2023-05-07T19:58:11;11.20;5.60
19385;DHT22;9828;54.122;17.974;2023-05-07T20:03:33;11.20;5.80
19385;DHT22;9828;54.122;17.974;2023-05-07T20:08:54;11.00;6.10
19385;DHT22;9828;54.122;17.974;2023-05-07T20:14:15;10.90;6.40
19385;DHT22;9828;54.122;17.974;2023-05-07T20:19:36;10.70;6.80
19385;DHT22;9828;54.122;17.974;2023-05-07T20:24:58;10.70;7.20
19385;DHT22;9828;54.122;17.974;2023-05-07T20:30:19;10.70;7.60
19385;DHT22;9828;54.122;17.974;2023-05-07T20:35:43;10.50;8.00
19385;DHT22;9828;54.122;17.974;2023-05-07T20:41:09;10.40;8.30
19385;DHT22;9828;54.122;17.974;2023-05-07T20:46:31;10.40;8.70
19385;DHT22;9828;54.122;17.974;2023-05-07T20:51:52;10.30;8.90
19385;DHT22;9828;54.122;17.974;2023-05-07T20:57:13;10.30;9.10
19385;DHT22;9828;54.122;17.974;2023-05-07T21:02:34;10.20;9.60
19385;DHT22;9828;54.122;17.974;2023-05-07T21:07:55;10.20;9.60
19385;DHT22;9828;54.122;17.974;2023-05-07T21:13:16;10.10;9.80
19385;DHT22;9828;54.122;17.974;2023-05-07T21:18:38;10.00;10.10
19385;DHT22;9828;54.122;17.974;2023-05-07T21:23:59;10.00;10.40
19385;DHT22;9828;54.122;17.974;2023-05-07T21:29:21;10.00;10.60
19385;DHT22;9828;54.122;17.974;2023-05-07T21:34:42;10.00;10.70
19385;DHT22;9828;54.122;17.974;2023-05-07T21:40:04;9.90;10.90
19385;DHT22;9828;54.122;17.974;2023-05-07T21:45:25;9.90;11.10
19385;DHT22;9828;54.122;17.974;2023-05-07T21:51:07;9.70;11.60
19385;DHT22;9828;54.122;17.974;2023-05-07T21:56:28;9.70;12.40
19385;DHT22;9828;54.122;17.974;2023-05-07T22:01:49;9.70;12.30
19385;DHT22;9828;54.122;17.974;2023-05-07T22:07:10;9.60;12.60
19385;DHT22;9828;54.122;17.974;2023-05-07T22:12:31;9.50;13.10
19385;DHT22;9828;54.122;17.974;2023-05-07T22:17:52;9.40;13.50
19385;DHT22;9828;54.122;17.974;2023-05-07T22:23:13;9.40;14.00
19385;DHT22;9828;54.122;17.974;2023-05-07T22:28:34;9.40;14.40
19385;DHT22;9828;54.122;17.974;2023-05-07T22:33:55;9.30;14.90
19385;DHT22;9828;54.122;17.974;2023-05-07T22:39:16;9.30;15.40
19385;DHT22;9828;54.122;17.974;2023-05-07T22:44:37;9.20;15.90
19385;DHT22;9828;54.122;17.974;2023-05-07T22:49:58;9.20;16.40
19385;DHT22;9828;54.122;17.974;2023-05-07T22:55:19;9.20;16.90
19385;DHT22;9828;54.122;17.974;2023-05-07T23:00:40;9.10;17.40
19385;DHT22;9828;54.122;17.974;2023-05-07T23:06:01;9.00;18.50
19385;DHT22;9828;54.122;17.974;2023-05-07T23:11:23;9.00;19.10
19385;DHT22;9828;54.122;17.974;2023-05-07T23:16:45;8.90;99.90
19385;DHT22;9828;54.122;17.974;2023-05-07T23:22:06;8.90;99.90
19385;DHT22;9828;54.122;17.974;2023-05-07T23:27:27;8.90;99.90
19385;DHT22;9828;54.122;17.974;2023-05-07T23:32:48;8.90;99.90
19385;DHT22;9828;54.122;17.974;2023-05-07T23:38:09;8.90;99.90
19385;DHT22;9828;54.122;17.974;2023-05-07T23:43:30;8.80;99.90
19385;DHT22;9828;54.122;17.974;2023-05-07T23:48:51;8.70;99.90
19385;DHT22;9828;54.122;17.974;2023-05-07T23:54:12;8.70;99.90
19385;DHT22;9828;54.122;17.974;2023-05-07T23:59:33;8.70;99.90
